Time;durP1;ratioP1;P1;durP2;ratioP2;P2;SDS_P1;SDS_P2;PMS_P1;PMS_P2;Temp;Humidity;BMP_temperature;BMP_pressure;BME280_temperature;BME280_humidity;BME280_pressure;Samples;Min_cycle;Max_cycle;Signal;HPM_P1;HPM_P2
2021/08/04 00:01:34;;;;;;;13.48;8.07;;;16.60;99.90;;;;;;5050989;28;25123;-69
2021/08/04 00:04:00;;;;;;;11.95;8.32;;;16.50;99.90;;;;;;5059247;28;25117;-67
2021/08/04 00:06:25;;;;;;;14.45;8.43;;;16.50;99.90;;;;;;5048650;28;25079;-69
2021/08/04 00:08:51;;;;;;;14.35;8.52;;;16.60;99.90;;;;;;5042664;28;25062;-71
2021/08/04 00:11:16;;;;;;;10.63;8.32;;;16.60;99.90;;;;;;5062607;28;25068;-68
2021/08/04 00:13:42;;;;;;;11.25;8.10;;;16.70;99.90;;;;;;5060649;28;25066;-68
2021/08/04 00:16:08;;;;;;;11.07;8.48;;;16.60;99.90;;;;;;5058606;28;25065;-67
2021/08/04 00:18:33;;;;;;;11.13;8.50;;;16.50;99.90;;;;;;5032246;28;25083;-69
2021/08/04 00:20:59;;;;;;;13.10;9.10;;;16.40;99.90;;;;;;5056725;28;25063;-68
2021/08/04 00:23:25;;;;;;;14.38;9.30;;;16.40;99.90;;;;;;5057962;28;25075;-68
2021/08/04 00:25:51;;;;;;;14.43;9.80;;;16.30;99.90;;;;;;5061282;28;25091;-68
2021/08/04 00:28:16;;;;;;;13.32;11.60;;;16.30;99.90;;;;;;5064887;28;25165;-67
2021/08/04 00:30:42;;;;;;;13.65;10.68;;;16.30;99.90;;;;;;5059686;28;25122;-67
2021/08/04 00:33:08;;;;;;;14.15;10.40;;;16.10;99.90;;;;;;5065650;28;25067;-68
2021/08/04 00:35:33;;;;;;;22.15;12.00;;;16.00;99.90;;;;;;5063682;28;25057;-68
2021/08/04 00:37:59;;;;;;;16.75;11.85;;;15.90;99.90;;;;;;5061727;28;25075;-67
2021/08/04 00:40:25;;;;;;;17.73;12.48;;;16.00;99.90;;;;;;5066216;28;25059;-66
2021/08/04 00:42:51;;;;;;;16.67;13.68;;;16.20;99.90;;;;;;5075374;28;25057;-68
2021/08/04 00:45:16;;;;;;;15.65;13.32;;;16.40;99.90;;;;;;5050583;28;25163;-67
2021/08/04 00:47:43;;;;;;;18.63;14.35;;;16.30;99.90;;;;;;5064713;28;25114;-70
2021/08/04 00:50:09;;;;;;;23.25;15.75;;;16.20;99.90;;;;;;5066305;28;25123;-68
2021/08/04 00:52:35;;;;;;;18.30;15.10;;;15.90;99.90;;;;;;5062988;28;25083;-67
2021/08/04 00:55:01;;;;;;;23.83;14.98;;;15.80;99.90;;;;;;5046471;28;25067;-68
2021/08/04 00:57:26;;;;;;;17.75;15.32;;;16.00;99.90;;;;;;5045575;28;25145;-68
2021/08/04 00:59:52;;;;;;;18.77;14.27;;;16.10;99.90;;;;;;5059306;28;25049;-69
2021/08/04 01:02:31;;;;;;;16.70;13.35;;;16.10;99.90;;;;;;5060859;28;25048;-67
2021/08/04 01:05:16;;;;;;;20.30;14.55;;;16.20;99.90;;;;;;5042303;28;25083;-68
2021/08/04 01:07:44;;;;;;;18.35;14.35;;;16.20;99.90;;;;;;5058222;28;25115;-67
2021/08/04 01:10:23;;;;;;;23.52;14.32;;;16.20;99.90;;;;;;5041773;28;25070;-68
2021/08/04 01:13:04;;;;;;;17.10;13.35;;;16.20;99.90;;;;;;5040876;28;25069;-68
2021/08/04 01:15:35;;;;;;;17.27;12.38;;;16.10;99.90;;;;;;5062654;28;25051;-67
2021/08/04 01:18:01;;;;;;;13.75;11.70;;;16.10;99.90;;;;;;5065234;28;25146;-68
2021/08/04 01:20:29;;;;;;;16.42;11.60;;;16.10;99.90;;;;;;5045818;28;25062;-67
2021/08/04 01:23:24;;;;;;;13.20;11.07;;;16.10;99.90;;;;;;5039911;28;25135;-68
2021/08/04 01:25:59;;;;;;;17.52;10.90;;;16.00;99.90;;;;;;5064268;28;25485;-68
2021/08/04 01:28:36;;;;;;;13.80;10.50;;;16.10;99.90;;;;;;5066179;28;25143;-68
2021/08/04 01:31:08;;;;;;;13.07;10.63;;;16.20;99.90;;;;;;5064483;28;25075;-68
2021/08/04 01:33:38;;;;;;;17.58;10.70;;;16.30;99.90;;;;;;5044638;28;25079;-67
2021/08/04 01:36:06;;;;;;;12.10;10.02;;;16.40;99.90;;;;;;5071396;28;25068;-67
2021/08/04 01:38:32;;;;;;;14.10;9.43;;;16.50;99.90;;;;;;5064763;28;25136;-66
2021/08/04 01:41:00;;;;;;;12.73;10.10;;;16.60;99.90;;;;;;5083858;28;25050;-68
2021/08/04 01:43:26;;;;;;;15.40;10.77;;;16.70;99.90;;;;;;5050477;28;25058;-66
2021/08/04 01:45:55;;;;;;;16.70;11.15;;;16.50;99.90;;;;;;5069270;28;25093;-67
2021/08/04 01:48:21;;;;;;;14.25;10.65;;;16.30;99.90;;;;;;5065625;28;25074;-68
2021/08/04 01:50:47;;;;;;;13.23;10.65;;;16.30;99.90;;;;;;5049440;28;25090;-67
2021/08/04 01:53:13;;;;;;;15.77;10.57;;;16.30;99.90;;;;;;5069761;28;25101;-67
2021/08/04 01:55:39;;;;;;;12.27;10.77;;;16.40;99.90;;;;;;5078005;28;25066;-69
2021/08/04 01:58:05;;;;;;;12.18;9.98;;;16.40;99.90;;;;;;5078527;28;25089;-68
2021/08/04 02:00:30;;;;;;;15.32;10.88;;;16.40;99.90;;;;;;5066069;28;25076;-68
2021/08/04 02:02:56;;;;;;;15.23;11.13;;;16.40;99.90;;;;;;5065448;28;25054;-68
2021/08/04 02:05:21;;;;;;;13.00;11.60;;;16.30;99.90;;;;;;5067709;28;25156;-67
2021/08/04 02:08:18;;;;;;;13.00;11.45;;;16.10;99.90;;;;;;5064357;28;25069;-68
2021/08/04 02:11:03;;;;;;;14.38;11.75;;;16.10;99.90;;;;;;5062388;28;25081;-68
2021/08/04 02:13:43;;;;;;;18.20;12.20;;;16.00;99.90;;;;;;5063317;28;25061;-67
2021/08/04 02:16:27;;;;;;;15.98;12.45;;;15.90;99.90;;;;;;5043803;28;25049;-67
2021/08/04 02:19:02;;;;;;;15.45;12.35;;;15.80;99.90;;;;;;5058031;28;25103;-67
2021/08/04 02:21:29;;;;;;;15.68;11.60;;;15.80;99.90;;;;;;5066165;28;25059;-66
2021/08/04 02:23:55;;;;;;;18.77;13.10;;;15.70;99.90;;;;;;5057992;28;25096;-68
2021/08/04 02:26:22;;;;;;;18.42;11.88;;;15.60;99.90;;;;;;5061025;28;25051;-67
2021/08/04 02:28:52;;;;;;;14.63;12.05;;;15.50;99.90;;;;;;5064690;28;25052;-66
2021/08/04 02:31:19;;;;;;;16.15;12.55;;;15.50;99.90;;;;;;5057830;28;25068;-67
2021/08/04 02:33:45;;;;;;;16.38;12.15;;;15.50;99.90;;;;;;5044367;28;25061;-66
2021/08/04 02:36:12;;;;;;;15.05;12.73;;;15.50;99.90;;;;;;5066643;28;25066;-67
2021/08/04 02:38:38;;;;;;;17.67;12.40;;;15.50;99.90;;;;;;5050534;28;25143;-68
2021/08/04 02:41:05;;;;;;;15.18;12.52;;;15.50;99.90;;;;;;5080838;28;25087;-68
2021/08/04 02:43:31;;;;;;;19.38;13.30;;;15.60;99.90;;;;;;5085121;28;25051;-69
2021/08/04 02:45:58;;;;;;;18.35;13.90;;;15.70;99.90;;;;;;5085626;28;25127;-67
2021/08/04 02:48:25;;;;;;;17.75;13.65;;;15.70;99.90;;;;;;5077764;28;25050;-67
2021/08/04 02:50:57;;;;;;;20.25;13.00;;;15.60;99.90;;;;;;5072031;28;25124;-69
2021/08/04 02:53:22;;;;;;;19.73;12.97;;;15.70;99.90;;;;;;5050641;28;25062;-68
2021/08/04 02:55:52;;;;;;;18.83;11.95;;;15.80;99.90;;;;;;5070311;28;25132;-67
2021/08/04 02:58:18;;;;;;;16.50;12.30;;;15.80;99.90;;;;;;5065162;28;25148;-68
2021/08/04 03:00:44;;;;;;;19.67;12.82;;;15.80;99.90;;;;;;5071279;28;25097;-67
2021/08/04 03:03:10;;;;;;;20.73;13.25;;;15.70;99.90;;;;;;5049278;28;25137;-68
2021/08/04 03:05:36;;;;;;;16.23;12.52;;;15.60;99.90;;;;;;5051331;28;25106;-69
2021/08/04 03:08:01;;;;;;;18.27;14.55;;;15.60;99.90;;;;;;5089605;28;25087;-68
2021/08/04 03:10:27;;;;;;;17.75;13.52;;;15.60;99.90;;;;;;5070658;28;25075;-67
2021/08/04 03:12:53;;;;;;;21.20;15.50;;;15.60;99.90;;;;;;5076115;28;25093;-68
2021/08/04 03:15:18;;;;;;;22.40;15.30;;;15.60;99.90;;;;;;5050921;28;25112;-68
2021/08/04 03:17:44;;;;;;;20.73;15.45;;;15.40;99.90;;;;;;5039149;28;25137;-67
2021/08/04 03:20:10;;;;;;;23.27;15.82;;;15.40;99.90;;;;;;5061628;28;25073;-68
2021/08/04 03:22:41;;;;;;;25.48;17.50;;;15.40;99.90;;;;;;5039776;28;25087;-69
2021/08/04 03:25:09;;;;;;;21.25;17.25;;;15.40;99.90;;;;;;5080658;28;25089;-68
2021/08/04 03:27:35;;;;;;;21.05;16.73;;;15.30;99.90;;;;;;5070333;28;25078;-67
2021/08/04 03:30:00;;;;;;;24.80;17.17;;;15.40;99.90;;;;;;5068398;28;25068;-67
2021/08/04 03:32:26;;;;;;;21.83;16.73;;;15.40;99.90;;;;;;5064435;28;25087;-69
2021/08/04 03:34:51;;;;;;;24.60;18.25;;;15.30;99.90;;;;;;5067280;28;25051;-68
2021/08/04 03:37:17;;;;;;;21.38;17.38;;;15.30;99.90;;;;;;5065853;28;25060;-68
2021/08/04 03:39:42;;;;;;;19.77;16.85;;;15.30;99.90;;;;;;5068670;28;25073;-66
2021/08/04 03:42:08;;;;;;;20.67;17.30;;;15.30;99.90;;;;;;5066595;28;25072;-68
2021/08/04 03:44:34;;;;;;;21.50;16.55;;;15.40;99.90;;;;;;5065993;28;25061;-68
2021/08/04 03:47:00;;;;;;;24.83;17.20;;;15.40;99.90;;;;;;5068474;28;25079;-68
2021/08/04 03:49:26;;;;;;;20.08;17.23;;;15.30;99.90;;;;;;5045536;28;25133;-68
2021/08/04 03:51:51;;;;;;;27.00;18.15;;;15.10;99.90;;;;;;5069301;28;25066;-67
2021/08/04 03:54:17;;;;;;;20.85;17.65;;;14.80;99.90;;;;;;5079705;28;25071;-67
2021/08/04 03:56:43;;;;;;;22.92;17.75;;;14.80;99.90;;;;;;5061653;28;25056;-68
2021/08/04 03:59:09;;;;;;;23.25;18.45;;;14.70;99.90;;;;;;5076166;28;25080;-68
2021/08/04 04:01:35;;;;;;;23.00;18.80;;;14.60;99.90;;;;;;5055684;28;25055;-67
2021/08/04 04:04:00;;;;;;;23.40;19.55;;;14.50;99.90;;;;;;5065784;28;25058;-67
2021/08/04 04:06:26;;;;;;;24.00;18.08;;;14.50;99.90;;;;;;5051344;28;25084;-68
2021/08/04 04:08:51;;;;;;;24.33;18.10;;;14.50;99.90;;;;;;5062816;28;25125;-68
2021/08/04 04:11:17;;;;;;;23.33;18.08;;;14.60;99.90;;;;;;5050725;28;25124;-68
2021/08/04 04:13:43;;;;;;;27.52;18.77;;;14.60;99.90;;;;;;5042064;28;25058;-67
2021/08/04 04:16:08;;;;;;;22.33;18.45;;;14.60;99.90;;;;;;5063142;28;25072;-67
2021/08/04 04:18:34;;;;;;;22.85;18.45;;;14.60;99.90;;;;;;5061863;28;25065;-67
2021/08/04 04:20:59;;;;;;;27.58;19.63;;;14.40;99.90;;;;;;5047110;28;25100;-68
2021/08/04 04:23:25;;;;;;;21.00;16.73;;;14.50;99.90;;;;;;5038547;28;25138;-67
2021/08/04 04:25:50;;;;;;;23.33;17.48;;;14.50;99.90;;;;;;5065806;28;25061;-68
2021/08/04 04:28:16;;;;;;;27.73;18.88;;;14.60;99.90;;;;;;5069183;28;25118;-68
2021/08/04 04:30:42;;;;;;;24.50;19.00;;;14.60;99.90;;;;;;5067518;28;25121;-67
2021/08/04 04:33:07;;;;;;;21.45;17.55;;;14.50;99.90;;;;;;5075892;28;25065;-68
2021/08/04 04:35:33;;;;;;;24.42;17.85;;;14.60;99.90;;;;;;5065507;28;25069;-68
2021/08/04 04:37:58;;;;;;;23.83;18.55;;;14.60;99.90;;;;;;5070983;28;25062;-66
2021/08/04 04:40:24;;;;;;;24.63;18.70;;;14.50;99.90;;;;;;5063942;28;25058;-68
2021/08/04 04:42:50;;;;;;;26.70;18.10;;;14.40;99.90;;;;;;5069113;28;25048;-67
2021/08/04 04:45:16;;;;;;;25.20;18.02;;;14.40;99.90;;;;;;5063958;28;25067;-68
2021/08/04 04:47:41;;;;;;;27.73;19.42;;;14.30;99.90;;;;;;5061310;28;25087;-68
2021/08/04 04:50:08;;;;;;;26.23;18.48;;;14.40;99.90;;;;;;5053789;28;25097;-67
2021/08/04 04:52:44;;;;;;;25.50;17.65;;;14.30;99.90;;;;;;5065395;28;25072;-67
2021/08/04 04:55:10;;;;;;;24.02;17.30;;;14.40;99.90;;;;;;5068523;28;25074;-68
2021/08/04 04:57:36;;;;;;;23.80;18.15;;;14.40;99.90;;;;;;5065074;28;25050;-67
2021/08/04 05:00:02;;;;;;;27.58;18.02;;;14.50;99.90;;;;;;5066995;28;25053;-67
2021/08/04 05:02:28;;;;;;;28.00;18.27;;;14.50;99.90;;;;;;5087970;28;25074;-69
2021/08/04 05:04:58;;;;;;;26.00;18.75;;;14.60;99.90;;;;;;5087096;28;25060;-69
2021/08/04 05:07:24;;;;;;;28.35;18.65;;;14.60;99.90;;;;;;5065292;28;25053;-68
2021/08/04 05:09:50;;;;;;;24.98;18.50;;;14.60;99.90;;;;;;5073936;28;25074;-68
2021/08/04 05:12:15;;;;;;;30.33;19.52;;;14.70;99.90;;;;;;5073878;28;25089;-69
2021/08/04 05:14:41;;;;;;;27.02;19.45;;;14.70;99.90;;;;;;5083442;28;25100;-69
2021/08/04 05:17:10;;;;;;;26.83;18.40;;;14.60;99.90;;;;;;5063189;28;25060;-68
2021/08/04 05:19:36;;;;;;;21.73;17.90;;;14.70;99.90;;;;;;5063366;28;25112;-68
2021/08/04 05:22:01;;;;;;;24.58;17.08;;;14.70;99.90;;;;;;5064598;28;25167;-68
2021/08/04 05:24:27;;;;;;;24.92;18.10;;;14.80;99.90;;;;;;5067089;28;25078;-68
2021/08/04 05:26:59;;;;;;;26.15;19.30;;;14.90;99.90;;;;;;5035113;28;25111;-69
2021/08/04 05:29:25;;;;;;;26.35;17.50;;;14.80;99.90;;;;;;5021254;28;25058;-68
2021/08/04 05:31:50;;;;;;;26.70;18.50;;;14.90;99.90;;;;;;5004233;28;25065;-68
2021/08/04 05:34:17;;;;;;;28.75;19.42;;;15.00;99.90;;;;;;5011641;28;25061;-70
2021/08/04 05:36:43;;;;;;;23.58;16.95;;;14.90;99.90;;;;;;5008493;28;25081;-68
2021/08/04 05:39:09;;;;;;;26.40;18.38;;;15.10;99.90;;;;;;5007499;28;25065;-68
2021/08/04 05:41:34;;;;;;;23.85;17.65;;;15.30;99.90;;;;;;5008012;28;25065;-67
2021/08/04 05:44:00;;;;;;;28.80;18.63;;;15.20;99.90;;;;;;5031740;28;25093;-69
2021/08/04 05:46:26;;;;;;;25.52;18.27;;;15.30;99.90;;;;;;5019905;28;25087;-67
2021/08/04 05:48:51;;;;;;;28.00;18.10;;;15.30;99.90;;;;;;5023855;28;25098;-69
2021/08/04 05:51:18;;;;;;;23.33;18.08;;;15.40;99.90;;;;;;5023353;28;25111;-68
2021/08/04 05:53:43;;;;;;;25.55;18.00;;;15.40;99.90;;;;;;5021856;28;25103;-69
2021/08/04 05:56:10;;;;;;;24.33;18.02;;;15.50;99.90;;;;;;5009949;28;25159;-69
2021/08/04 05:58:36;;;;;;;22.73;17.83;;;15.60;99.90;;;;;;5006229;28;25058;-67
2021/08/04 06:01:02;;;;;;;28.58;17.80;;;15.70;99.90;;;;;;5007647;28;25142;-70
2021/08/04 06:03:27;;;;;;;26.02;18.17;;;15.80;99.90;;;;;;5001810;28;25144;-67
2021/08/04 06:05:53;;;;;;;28.38;18.17;;;15.90;99.90;;;;;;5009017;28;25069;-69
2021/08/04 06:08:18;;;;;;;21.67;17.73;;;15.90;99.90;;;;;;5008005;28;25081;-69
2021/08/04 06:10:44;;;;;;;32.13;17.48;;;16.10;99.90;;;;;;5014666;28;25151;-70
2021/08/04 06:13:09;;;;;;;23.63;17.45;;;16.20;99.90;;;;;;5007207;28;25061;-67
2021/08/04 06:15:35;;;;;;;33.25;16.00;;;16.30;99.90;;;;;;5001021;28;25058;-68
2021/08/04 06:18:01;;;;;;;21.25;16.83;;;16.40;99.90;;;;;;5006469;28;25084;-68
2021/08/04 06:20:27;;;;;;;21.52;16.30;;;16.50;99.90;;;;;;5006185;28;25119;-69
2021/08/04 06:22:53;;;;;;;19.77;16.67;;;16.60;99.90;;;;;;5001851;28;25068;-68
2021/08/04 06:25:18;;;;;;;21.38;15.77;;;16.50;99.90;;;;;;5003997;28;25083;-67
2021/08/04 06:27:44;;;;;;;20.13;15.98;;;16.50;99.90;;;;;;5006211;28;25053;-69
2021/08/04 06:30:10;;;;;;;22.02;15.18;;;16.50;99.90;;;;;;5007786;28;25054;-68
2021/08/04 06:32:35;;;;;;;23.92;14.73;;;16.70;99.90;;;;;;4999419;28;25058;-68
2021/08/04 06:35:01;;;;;;;23.90;14.52;;;16.90;99.90;;;;;;5009334;28;25148;-68
2021/08/04 06:37:27;;;;;;;22.45;14.40;;;17.20;99.90;;;;;;5010563;28;25089;-71
2021/08/04 06:39:52;;;;;;;16.77;12.98;;;17.20;99.90;;;;;;4992819;28;25127;-69
2021/08/04 06:42:19;;;;;;;14.20;11.98;;;17.20;99.90;;;;;;4995634;28;25079;-69
2021/08/04 06:44:45;;;;;;;19.92;12.93;;;17.30;99.90;;;;;;4994949;28;25129;-69
2021/08/04 06:47:11;;;;;;;16.70;11.55;;;17.60;99.90;;;;;;4987111;28;25048;-69
2021/08/04 06:49:36;;;;;;;14.82;10.60;;;17.60;99.90;;;;;;4991927;28;25059;-68
2021/08/04 06:52:02;;;;;;;19.98;11.35;;;17.50;99.90;;;;;;5001328;28;25169;-67
2021/08/04 06:54:30;;;;;;;17.42;11.43;;;17.50;99.90;;;;;;5020205;28;25057;-68
2021/08/04 06:56:55;;;;;;;16.48;10.73;;;17.50;99.90;;;;;;4989568;28;25149;-68
2021/08/04 06:59:22;;;;;;;13.45;11.00;;;17.40;99.90;;;;;;4994290;28;25147;-70
2021/08/04 07:01:47;;;;;;;14.27;10.57;;;17.60;99.90;;;;;;4991760;28;25077;-67
2021/08/04 07:04:14;;;;;;;15.88;9.98;;;17.70;99.90;;;;;;4993962;28;25122;-67
2021/08/04 07:06:56;;;;;;;14.82;10.05;;;17.70;99.90;;;;;;4990468;28;25133;-69
2021/08/04 07:09:21;;;;;;;14.20;10.00;;;17.80;99.90;;;;;;5003224;28;25073;-67
2021/08/04 07:11:47;;;;;;;13.82;9.27;;;18.20;99.90;;;;;;4997095;28;25056;-66
2021/08/04 07:14:14;;;;;;;14.30;8.57;;;18.40;99.90;;;;;;4989181;28;25173;-69
2021/08/04 07:16:39;;;;;;;9.27;7.80;;;18.60;99.90;;;;;;4994289;28;25066;-68
2021/08/04 07:19:05;;;;;;;15.27;7.75;;;18.90;99.90;;;;;;4995588;28;25132;-65
2021/08/04 07:21:31;;;;;;;14.82;9.30;;;19.10;99.90;;;;;;4991715;28;25121;-69
2021/08/04 07:23:56;;;;;;;15.63;9.57;;;19.30;99.90;;;;;;4998242;28;25068;-68
2021/08/04 07:26:22;;;;;;;14.23;7.97;;;19.30;99.90;;;;;;5002406;28;25066;-68
2021/08/04 07:28:47;;;;;;;10.60;7.47;;;19.30;99.90;;;;;;4991946;28;25070;-67
2021/08/04 07:31:13;;;;;;;14.40;7.63;;;19.50;99.90;;;;;;4994734;28;25059;-69
2021/08/04 07:33:40;;;;;;;13.45;8.10;;;19.50;99.90;;;;;;4991706;28;25062;-69
2021/08/04 07:36:06;;;;;;;8.60;6.63;;;19.50;99.90;;;;;;4992666;28;25061;-67
2021/08/04 07:38:32;;;;;;;8.98;6.30;;;19.30;99.90;;;;;;4989268;28;25123;-69
2021/08/04 07:40:59;;;;;;;11.00;7.68;;;19.50;99.90;;;;;;4992775;28;25106;-69
2021/08/04 07:43:26;;;;;;;9.07;6.68;;;19.60;99.90;;;;;;4993749;28;25172;-67
2021/08/04 07:45:51;;;;;;;12.90;5.90;;;19.90;99.90;;;;;;4995330;28;25150;-68
2021/08/04 07:48:17;;;;;;;8.32;5.22;;;20.10;99.90;;;;;;4997651;28;25060;-69
2021/08/04 07:50:43;;;;;;;7.55;5.47;;;20.10;99.90;;;;;;4989226;28;25138;-70
2021/08/04 07:53:09;;;;;;;8.48;5.90;;;20.20;99.90;;;;;;4991428;28;25159;-68
2021/08/04 07:55:34;;;;;;;9.20;5.90;;;20.30;99.90;;;;;;4995341;28;25070;-69
2021/08/04 07:58:01;;;;;;;8.90;6.25;;;20.30;99.90;;;;;;4993948;28;25060;-68
2021/08/04 08:00:27;;;;;;;9.70;5.32;;;20.00;99.90;;;;;;4988208;28;25062;-71
2021/08/04 08:02:53;;;;;;;7.00;4.53;;;19.90;99.90;;;;;;4991008;28;25110;-67
2021/08/04 08:05:19;;;;;;;7.85;4.95;;;20.20;99.90;;;;;;4995674;28;25173;-71
2021/08/04 08:07:48;;;;;;;12.57;4.72;;;20.50;99.90;;;;;;5008376;28;25070;-70
2021/08/04 08:10:18;;;;;;;7.30;4.72;;;20.30;99.90;;;;;;5025818;28;25060;-70
2021/08/04 08:12:44;;;;;;;7.80;5.20;;;19.80;99.90;;;;;;5004554;28;25080;-69
2021/08/04 08:15:11;;;;;;;9.32;5.07;;;19.70;99.90;;;;;;4993633;28;25144;-67
2021/08/04 08:17:37;;;;;;;6.53;4.75;;;20.10;99.90;;;;;;5003741;28;25065;-66
2021/08/04 08:20:04;;;;;;;9.85;5.90;;;20.30;99.90;;;;;;4990784;28;25083;-69
2021/08/04 08:22:30;;;;;;;10.20;5.40;;;20.30;99.90;;;;;;4996892;28;25060;-69
2021/08/04 08:24:55;;;;;;;9.38;6.40;;;20.20;99.90;;;;;;4998502;28;25098;-66
2021/08/04 08:27:21;;;;;;;6.70;5.00;;;19.80;99.90;;;;;;4992379;28;25077;-68
2021/08/04 08:29:47;;;;;;;8.48;5.55;;;19.90;99.90;;;;;;4990199;28;25083;-68
2021/08/04 08:32:13;;;;;;;8.18;6.32;;;20.00;99.90;;;;;;4988896;28;25073;-69
2021/08/04 08:34:39;;;;;;;7.53;5.43;;;19.70;99.90;;;;;;4985020;28;25122;-67
2021/08/04 08:37:04;;;;;;;7.20;4.50;;;19.60;99.90;;;;;;4973494;28;25074;-67
2021/08/04 08:39:31;;;;;;;8.75;4.80;;;19.90;99.90;;;;;;4994355;28;25065;-69
2021/08/04 08:42:01;;;;;;;9.02;5.15;;;20.10;99.90;;;;;;4989122;28;25073;-70
2021/08/04 08:44:27;;;;;;;9.27;4.93;;;19.70;99.90;;;;;;5015698;28;25067;-69
2021/08/04 08:46:53;;;;;;;6.60;5.90;;;19.50;99.90;;;;;;5006047;28;25134;-69
2021/08/04 08:49:27;;;;;;;11.13;4.53;;;19.60;99.90;;;;;;5003057;28;25054;-69
2021/08/04 08:51:55;;;;;;;6.07;4.78;;;19.70;99.90;;;;;;4991985;28;25050;-68
2021/08/04 08:54:21;;;;;;;7.40;3.55;;;19.90;99.90;;;;;;4994026;28;24928;-68
2021/08/04 08:56:47;;;;;;;6.38;3.70;;;19.90;99.90;;;;;;5004513;28;25049;-70
2021/08/04 08:59:16;;;;;;;5.25;3.47;;;20.10;99.90;;;;;;5008643;28;25061;-67
2021/08/04 09:01:43;;;;;;;9.40;4.10;;;20.30;99.90;;;;;;4998859;28;25055;-69
2021/08/04 09:04:10;;;;;;;12.35;3.35;;;20.60;99.90;;;;;;4997784;28;25093;-68
2021/08/04 09:06:53;;;;;;;9.40;3.55;;;20.40;99.90;;;;;;4994906;28;25095;-67
2021/08/04 09:09:20;;;;;;;4.78;3.40;;;19.90;99.90;;;;;;4998774;28;25089;-68
2021/08/04 09:11:57;;;;;;;5.32;3.60;;;20.10;99.90;;;;;;4991614;28;25068;-69
2021/08/04 09:14:31;;;;;;;9.27;3.85;;;20.50;99.90;;;;;;4989317;28;25072;-68
2021/08/04 09:17:04;;;;;;;6.05;3.72;;;20.80;99.90;;;;;;4984948;28;25087;-70
2021/08/04 09:19:51;;;;;;;5.18;4.07;;;21.10;99.90;;;;;;4996147;28;25102;-67
2021/08/04 09:22:24;;;;;;;6.15;4.93;;;21.20;99.90;;;;;;5000416;28;25067;-68
2021/08/04 09:25:07;;;;;;;6.68;4.80;;;21.20;99.90;;;;;;4992413;28;25059;-68
2021/08/04 09:27:51;;;;;;;5.82;4.82;;;21.30;99.90;;;;;;4993342;28;25090;-69
2021/08/04 09:30:32;;;;;;;11.18;5.32;;;20.90;99.90;;;;;;4998814;28;25104;-70
2021/08/04 09:33:25;;;;;;;9.02;6.35;;;20.70;99.90;;;;;;4999168;28;25120;-68
2021/08/04 09:35:54;;;;;;;7.93;6.28;;;20.70;99.90;;;;;;4995104;28;25054;-69
2021/08/04 09:38:20;;;;;;;8.32;6.18;;;20.90;99.90;;;;;;5003153;28;25151;-68
2021/08/04 09:41:08;;;;;;;9.32;6.88;;;21.10;99.90;;;;;;4993219;28;25061;-68
2021/08/04 09:43:34;;;;;;;8.25;6.82;;;21.00;99.90;;;;;;4989413;28;25089;-69
2021/08/04 09:45:59;;;;;;;11.40;7.97;;;21.30;99.90;;;;;;4987507;28;25107;-67
2021/08/04 09:48:27;;;;;;;10.02;6.88;;;20.90;99.90;;;;;;4991505;28;25079;-70
2021/08/04 09:50:56;;;;;;;10.25;7.15;;;20.80;99.90;;;;;;4990896;28;25124;-69
2021/08/04 09:53:28;;;;;;;8.13;6.63;;;21.10;99.90;;;;;;4990308;28;25074;-67
2021/08/04 09:56:07;;;;;;;12.02;7.10;;;21.30;99.90;;;;;;4986581;28;25069;-69
2021/08/04 09:58:38;;;;;;;12.40;7.95;;;21.50;99.90;;;;;;4982960;28;25057;-69
2021/08/04 10:01:04;;;;;;;14.23;8.93;;;21.30;99.90;;;;;;4988890;28;25090;-69
2021/08/04 10:03:31;;;;;;;8.93;7.28;;;21.20;99.90;;;;;;4975309;28;25059;-69
2021/08/04 10:05:57;;;;;;;9.80;7.70;;;21.10;99.90;;;;;;4999927;28;25084;-70
2021/08/04 10:08:23;;;;;;;11.77;8.15;;;21.10;99.90;;;;;;5001730;28;25066;-68
2021/08/04 10:10:51;;;;;;;9.02;6.85;;;21.20;99.90;;;;;;5006462;28;25053;-70
2021/08/04 10:13:21;;;;;;;9.57;7.43;;;21.40;99.90;;;;;;5009915;28;25082;-66
2021/08/04 10:15:50;;;;;;;9.73;6.97;;;21.60;99.90;;;;;;4979435;28;25063;-70
2021/08/04 10:18:18;;;;;;;9.38;7.80;;;21.30;99.90;;;;;;5001164;28;25106;-69
2021/08/04 10:20:45;;;;;;;11.27;7.20;;;21.10;99.90;;;;;;4996622;28;25114;-68
2021/08/04 10:23:17;;;;;;;10.10;6.80;;;20.90;99.90;;;;;;4995489;28;25146;-70
2021/08/04 10:25:44;;;;;;;8.50;6.70;;;20.90;99.90;;;;;;5005391;28;25124;-67
2021/08/04 10:28:11;;;;;;;11.95;8.45;;;21.10;99.90;;;;;;5001237;28;25080;-69
2021/08/04 10:30:38;;;;;;;11.63;8.00;;;21.30;99.90;;;;;;4991336;28;25045;-68
2021/08/04 10:33:08;;;;;;;9.80;8.20;;;21.50;99.90;;;;;;4993390;28;25100;-67
2021/08/04 10:35:40;;;;;;;12.80;7.95;;;21.50;99.90;;;;;;4998502;28;25062;-67
2021/08/04 10:38:13;;;;;;;8.00;6.82;;;21.40;99.90;;;;;;5003603;28;25047;-67
2021/08/04 10:40:40;;;;;;;9.88;8.57;;;21.50;99.90;;;;;;4995630;28;25094;-68
2021/08/04 10:43:05;;;;;;;10.20;8.00;;;21.30;99.90;;;;;;4992056;28;25110;-68
2021/08/04 10:45:33;;;;;;;12.35;7.50;;;21.30;99.90;;;;;;4989731;28;25068;-69
2021/08/04 10:48:23;;;;;;;9.82;6.45;;;21.60;99.90;;;;;;4994746;28;25138;-67
2021/08/04 10:51:17;;;;;;;12.77;7.78;;;21.80;99.90;;;;;;4989840;28;25121;-69
2021/08/04 10:54:02;;;;;;;9.90;8.90;;;22.30;99.90;;;;;;4983215;28;25068;-67
2021/08/04 10:56:37;;;;;;;9.60;7.88;;;22.50;99.90;;;;;;4991224;28;25115;-68
2021/08/04 10:59:09;;;;;;;7.90;6.72;;;22.10;99.90;;;;;;4992540;28;25137;-67
2021/08/04 11:02:01;;;;;;;12.27;7.82;;;22.00;99.90;;;;;;4990960;28;25067;-69
2021/08/04 11:04:30;;;;;;;8.75;7.75;;;22.10;99.90;;;;;;5006016;28;25067;-68
2021/08/04 11:07:09;;;;;;;11.95;7.97;;;22.20;99.90;;;;;;4990430;28;25061;-68
2021/08/04 11:09:56;;;;;;;10.48;8.77;;;22.40;99.90;;;;;;4981633;28;25125;-67
2021/08/04 11:12:41;;;;;;;9.57;8.27;;;22.30;99.90;;;;;;4994755;28;25054;-66
2021/08/04 11:15:29;;;;;;;9.43;7.63;;;22.10;99.90;;;;;;4991414;28;25137;-67
2021/08/04 11:18:15;;;;;;;9.32;6.70;;;22.40;99.90;;;;;;4995059;28;25085;-68
2021/08/04 11:21:10;;;;;;;9.75;6.80;;;22.50;99.90;;;;;;5008381;28;25119;-72
2021/08/04 11:23:44;;;;;;;12.52;7.63;;;22.80;99.90;;;;;;5010113;28;25064;-68
2021/08/04 11:26:33;;;;;;;7.32;6.60;;;22.90;99.90;;;;;;4994977;28;25072;-68
2021/08/04 11:28:59;;;;;;;10.25;7.28;;;23.10;99.90;;;;;;4990848;28;25062;-70
2021/08/04 11:31:27;;;;;;;7.43;5.90;;;22.60;99.90;;;;;;4991837;28;25033;-69
2021/08/04 11:33:55;;;;;;;8.77;6.20;;;22.90;99.90;;;;;;5003841;28;25068;-68
2021/08/04 11:36:26;;;;;;;9.00;6.20;;;23.10;99.90;;;;;;5000186;28;25077;-66
2021/08/04 11:38:53;;;;;;;9.35;5.95;;;23.00;99.90;;;;;;4994720;28;25075;-70
2021/08/04 11:41:24;;;;;;;8.82;5.63;;;22.70;99.90;;;;;;5009602;28;25054;-66
2021/08/04 11:43:59;;;;;;;9.80;6.40;;;22.80;99.90;;;;;;4990908;28;25130;-68
2021/08/04 11:47:02;;;;;;;10.27;6.65;;;22.70;99.90;;;;;;4992470;28;25126;-68
2021/08/04 11:49:37;;;;;;;8.55;5.97;;;22.70;99.90;;;;;;4989651;28;25096;-67
2021/08/04 11:52:11;;;;;;;8.77;5.70;;;22.90;99.90;;;;;;4990141;28;25082;-68
2021/08/04 11:54:43;;;;;;;8.38;5.25;;;22.90;99.90;;;;;;4996711;28;25056;-69
2021/08/04 11:57:26;;;;;;;7.47;4.97;;;23.00;99.90;;;;;;4989642;28;25058;-68
2021/08/04 11:59:56;;;;;;;8.15;4.20;;;23.10;99.90;;;;;;4990028;28;25066;-68
2021/08/04 12:02:23;;;;;;;9.15;4.90;;;22.90;99.90;;;;;;4989055;28;25076;-69
2021/08/04 12:04:56;;;;;;;6.10;4.25;;;23.00;99.90;;;;;;4991193;28;25122;-67
2021/08/04 12:07:27;;;;;;;8.75;4.93;;;22.80;99.90;;;;;;4993901;28;25082;-67
2021/08/04 12:10:00;;;;;;;8.70;4.68;;;22.70;99.90;;;;;;4993454;28;25113;-70
2021/08/04 12:12:31;;;;;;;6.78;4.72;;;22.60;99.90;;;;;;5011553;28;25059;-69
2021/08/04 12:14:57;;;;;;;6.53;5.28;;;22.80;99.90;;;;;;4992227;28;25058;-70
2021/08/04 12:17:33;;;;;;;6.68;4.93;;;23.00;99.90;;;;;;5008599;28;25072;-68
2021/08/04 12:20:25;;;;;;;8.50;5.50;;;23.00;99.90;;;;;;4993079;28;25058;-70
2021/08/04 12:23:08;;;;;;;;;;;22.70;99.90;;;;;;4991469;28;25145;-68
2021/08/04 12:25:36;;;;;;;7.75;5.22;;;22.70;99.90;;;;;;4990901;28;25060;-69
2021/08/04 12:28:03;;;;;;;8.57;4.85;;;22.60;99.90;;;;;;4997084;28;25083;-69
2021/08/04 12:30:36;;;;;;;8.60;5.13;;;22.70;99.90;;;;;;5007915;28;25054;-70
2021/08/04 12:33:19;;;;;;;7.47;4.97;;;22.70;99.90;;;;;;5025564;28;25103;-68
2021/08/04 12:36:04;;;;;;;8.88;5.38;;;22.80;99.90;;;;;;5006930;28;25081;-67
2021/08/04 12:38:36;;;;;;;9.55;4.93;;;23.20;99.90;;;;;;4985947;28;25069;-68
2021/08/04 12:41:03;;;;;;;7.13;4.90;;;23.00;99.90;;;;;;4994102;28;25143;-68
2021/08/04 12:43:31;;;;;;;6.00;5.38;;;23.20;99.90;;;;;;4990562;28;25109;-66
2021/08/04 12:45:58;;;;;;;8.82;5.32;;;23.50;99.90;;;;;;4993300;28;25171;-69